createdAt,value
2023-03-30T00:01:17.739Z,100068.16
2023-03-30T00:03:44.381Z,100065.06
2023-03-30T00:06:11.012Z,100050.37
2023-03-30T00:08:37.598Z,100047.97
2023-03-30T00:11:04.360Z,100051.22
2023-03-30T00:13:30.928Z,100049.41
2023-03-30T00:15:57.346Z,100066.72
2023-03-30T00:18:24.036Z,100059.88
2023-03-30T00:20:50.910Z,100052.53
2023-03-30T00:23:17.402Z,100050.03
2023-03-30T00:25:43.825Z,100033.69
2023-03-30T00:28:10.266Z,100023.37
2023-03-30T00:30:37.392Z,99996.59
2023-03-30T00:33:03.861Z,99972.75
2023-03-30T00:35:33.498Z,99955.53
2023-03-30T00:38:03.610Z,99957.69
2023-03-30T00:40:30.062Z,99965.69
2023-03-30T00:42:56.506Z,99958.13
2023-03-30T00:45:22.956Z,99967.97
2023-03-30T00:47:49.460Z,99967.25
2023-03-30T00:50:17.052Z,99960.91
2023-03-30T00:52:43.482Z,99950.28
2023-03-30T00:55:09.903Z,99946.88
2023-03-30T00:57:36.561Z,99941.13
2023-03-30T01:00:07.018Z,99920.34
2023-03-30T01:02:33.543Z,99931.09
2023-03-30T01:05:00.067Z,99942.53
2023-03-30T01:07:26.616Z,99948.91
2023-03-30T01:09:53.324Z,99952.78
2023-03-30T01:12:19.745Z,99965.34
2023-03-30T01:14:46.461Z,99958.47
2023-03-30T01:17:13.851Z,99950.53
2023-03-30T01:19:40.484Z,99942.56
2023-03-30T01:22:07.010Z,99922.97
2023-03-30T01:24:34.991Z,99913.00
2023-03-30T01:27:01.426Z,99902.69
2023-03-30T01:29:27.958Z,99883.44
2023-03-30T01:31:54.387Z,99868.28
2023-03-30T01:34:20.877Z,99863.56
2023-03-30T01:36:47.381Z,99857.75
2023-03-30T01:39:13.837Z,99853.72
2023-03-30T01:41:40.247Z,99849.59
2023-03-30T01:44:06.731Z,99847.44
2023-03-30T01:46:33.197Z,99836.78
2023-03-30T01:48:59.685Z,99821.41
2023-03-30T01:51:26.380Z,99814.03
2023-03-30T01:53:52.813Z,99829.53
2023-03-30T01:56:19.271Z,99834.19
2023-03-30T01:58:45.695Z,99839.63
2023-03-30T02:01:14.597Z,99850.63
2023-03-30T02:03:41.055Z,99850.69
2023-03-30T02:06:07.649Z,99850.38
2023-03-30T02:08:34.083Z,99851.50
2023-03-30T02:11:00.781Z,99843.31
2023-03-30T02:13:27.301Z,99848.84
2023-03-30T02:15:53.755Z,99838.09
2023-03-30T02:18:20.439Z,99853.97
2023-03-30T02:20:47.769Z,99847.69
2023-03-30T02:23:14.189Z,99832.19
2023-03-30T02:25:40.666Z,99823.19
2023-03-30T02:28:07.104Z,99818.94
2023-03-30T02:30:33.519Z,99819.91
2023-03-30T02:33:00.053Z,99818.06
2023-03-30T02:35:26.749Z,99816.09
2023-03-30T02:37:53.830Z,99812.88
2023-03-30T02:40:20.331Z,99800.59
2023-03-30T02:42:46.781Z,99800.72
2023-03-30T02:45:13.624Z,99788.31
2023-03-30T02:47:40.185Z,99799.09
2023-03-30T02:50:07.261Z,99801.00
2023-03-30T02:52:34.068Z,99800.78
2023-03-30T02:55:01.807Z,99803.44
2023-03-30T02:57:28.262Z,99799.03
2023-03-30T02:59:54.736Z,99788.50
2023-03-30T03:02:22.071Z,99785.22
2023-03-30T03:04:49.653Z,99785.22
2023-03-30T03:07:16.253Z,99781.72
2023-03-30T03:09:43.105Z,99775.50
2023-03-30T03:12:09.566Z,99775.34
2023-03-30T03:14:36.345Z,99758.13
2023-03-30T03:17:02.922Z,99734.00
2023-03-30T03:19:29.365Z,99722.31
2023-03-30T03:21:55.936Z,99718.72
2023-03-30T03:24:22.375Z,99726.37
2023-03-30T03:26:48.892Z,99730.78
2023-03-30T03:29:15.338Z,99734.25
2023-03-30T03:31:41.784Z,99738.19
2023-03-30T03:34:08.300Z,99725.91
2023-03-30T03:36:34.975Z,99732.28
2023-03-30T03:39:01.427Z,99707.59
2023-03-30T03:41:27.999Z,99714.53
2023-03-30T03:43:54.494Z,99705.38
2023-03-30T03:46:21.085Z,99694.13
2023-03-30T03:48:47.584Z,99687.41
2023-03-30T03:51:14.581Z,99690.75
2023-03-30T03:53:41.065Z,99695.72
2023-03-30T03:56:07.737Z,99698.28
2023-03-30T03:58:34.180Z,99704.66
2023-03-30T04:01:00.726Z,99718.06
2023-03-30T04:03:27.306Z,99714.69
2023-03-30T04:05:53.770Z,99709.63
2023-03-30T04:08:20.204Z,99709.69
2023-03-30T04:10:46.716Z,99715.44
2023-03-30T04:13:13.126Z,99697.47
2023-03-30T04:15:39.567Z,99694.44
2023-03-30T04:18:06.836Z,99688.19
2023-03-30T04:20:33.330Z,99691.72
2023-03-30T04:23:01.977Z,99705.06
2023-03-30T04:25:29.405Z,99711.78
2023-03-30T04:27:56.236Z,99690.22
2023-03-30T04:30:23.135Z,99680.87
2023-03-30T04:33:03.236Z,99683.91
2023-03-30T04:35:30.296Z,99689.47
2023-03-30T04:37:58.296Z,99687.59
2023-03-30T04:40:24.807Z,99699.00
2023-03-30T04:42:51.238Z,99703.09
2023-03-30T04:45:18.626Z,99718.41
2023-03-30T04:47:46.167Z,99727.84
2023-03-30T04:50:12.858Z,99722.94
2023-03-30T04:52:39.268Z,99709.13
2023-03-30T04:55:05.714Z,99702.88
2023-03-30T04:57:32.148Z,99701.88
2023-03-30T04:59:58.581Z,99697.53
2023-03-30T05:02:25.127Z,99700.47
2023-03-30T05:04:51.612Z,99711.37
2023-03-30T05:07:18.024Z,99722.59
2023-03-30T05:09:44.776Z,99722.34
2023-03-30T05:12:11.198Z,99712.66
2023-03-30T05:14:37.900Z,99705.13
2023-03-30T05:17:04.644Z,99704.09
2023-03-30T05:19:31.186Z,99692.47
2023-03-30T05:21:57.705Z,99677.62
2023-03-30T05:24:24.130Z,99682.97
2023-03-30T05:26:50.572Z,99689.13
2023-03-30T05:29:17.617Z,99674.22
2023-03-30T05:31:44.110Z,99693.47
2023-03-30T05:34:10.587Z,99694.28
2023-03-30T05:36:37.075Z,99686.53
2023-03-30T05:39:05.258Z,99686.41
2023-03-30T05:41:31.933Z,99684.66
2023-03-30T05:43:58.390Z,99673.03
2023-03-30T05:46:24.836Z,99675.25
2023-03-30T05:48:51.578Z,99665.03
2023-03-30T05:51:17.988Z,99655.44
2023-03-30T05:53:45.440Z,99661.12
2023-03-30T05:56:11.871Z,99657.91
2023-03-30T05:58:38.764Z,99654.12
2023-03-30T06:01:06.316Z,99662.16
2023-03-30T06:03:33.362Z,99666.94
2023-03-30T06:06:00.564Z,99666.25
2023-03-30T06:08:27.316Z,99665.78
2023-03-30T06:10:53.731Z,99679.72
2023-03-30T06:13:20.211Z,99699.78
2023-03-30T06:15:46.829Z,99707.81
2023-03-30T06:18:13.373Z,99703.16
2023-03-30T06:20:39.815Z,99694.56
2023-03-30T06:23:06.287Z,99690.88
2023-03-30T06:25:32.699Z,99688.66
2023-03-30T06:27:59.157Z,99694.47
2023-03-30T06:30:25.771Z,99691.56
2023-03-30T06:32:52.226Z,99681.78
2023-03-30T06:35:18.743Z,99674.91
2023-03-30T06:37:45.221Z,99683.91
2023-03-30T06:40:13.676Z,99686.25
2023-03-30T06:42:40.194Z,99662.06
2023-03-30T06:45:06.590Z,99665.56
2023-03-30T06:47:33.129Z,99672.69
2023-03-30T06:49:59.632Z,99659.84
2023-03-30T06:52:26.206Z,99655.09
2023-03-30T06:54:52.612Z,99643.56
2023-03-30T06:57:19.127Z,99650.16
2023-03-30T06:59:45.658Z,99639.66
2023-03-30T07:02:12.093Z,99635.84
2023-03-30T07:04:38.637Z,99625.97
2023-03-30T07:07:05.140Z,99632.25
2023-03-30T07:09:31.582Z,99630.81
2023-03-30T07:11:58.015Z,99643.25
2023-03-30T07:14:24.435Z,99625.72
2023-03-30T07:16:51.392Z,99625.50
2023-03-30T07:19:17.934Z,99617.09
2023-03-30T07:21:44.370Z,99607.03
2023-03-30T07:24:10.851Z,99610.94
2023-03-30T07:26:37.372Z,99607.69
2023-03-30T07:29:05.139Z,99622.47
2023-03-30T07:31:31.598Z,99599.91
2023-03-30T07:33:58.032Z,99601.72
2023-03-30T07:36:24.559Z,99596.53
2023-03-30T07:38:52.205Z,99597.63
2023-03-30T07:41:19.898Z,99578.88
2023-03-30T07:43:46.558Z,99573.28
2023-03-30T07:46:13.054Z,99573.47
2023-03-30T07:48:39.564Z,99568.25
2023-03-30T07:51:06.998Z,99552.53
2023-03-30T07:53:33.691Z,99550.47
2023-03-30T07:56:00.683Z,99561.34
2023-03-30T07:58:27.844Z,99576.00
2023-03-30T08:00:54.281Z,99575.78
2023-03-30T08:03:22.250Z,99576.84
2023-03-30T08:05:49.805Z,99578.66
2023-03-30T08:08:16.230Z,99579.59
2023-03-30T08:10:42.660Z,99570.00
2023-03-30T08:13:09.098Z,99549.34
2023-03-30T08:15:35.525Z,99554.62
2023-03-30T08:18:04.590Z,99562.88
2023-03-30T08:20:31.384Z,99546.69
2023-03-30T08:22:57.796Z,99536.31
2023-03-30T08:25:24.253Z,99541.00
2023-03-30T08:27:50.798Z,99548.22
2023-03-30T08:30:17.303Z,99552.37
2023-03-30T08:32:43.795Z,99544.06
2023-03-30T08:35:10.288Z,99551.59
2023-03-30T08:37:36.719Z,99545.41
2023-03-30T08:40:03.776Z,99546.38
2023-03-30T08:42:30.200Z,99531.84
2023-03-30T08:44:56.742Z,99540.00
2023-03-30T08:47:23.192Z,99539.50
2023-03-30T08:49:49.650Z,99526.28
2023-03-30T08:52:16.084Z,99537.34
2023-03-30T08:54:42.502Z,99537.63
2023-03-30T08:57:08.998Z,99546.03
2023-03-30T08:59:35.493Z,99543.41
2023-03-30T09:02:01.907Z,99545.22
2023-03-30T09:04:28.343Z,99553.56
2023-03-30T09:06:55.143Z,99556.09
2023-03-30T09:09:21.744Z,99568.38
2023-03-30T09:11:48.172Z,99581.28
2023-03-30T09:14:14.611Z,99573.38
2023-03-30T09:16:41.157Z,99577.28
2023-03-30T09:19:07.610Z,99573.84
2023-03-30T09:21:34.048Z,99578.16
2023-03-30T09:24:00.494Z,99583.00
2023-03-30T09:26:27.399Z,99574.44
2023-03-30T09:28:53.816Z,99584.03
2023-03-30T09:31:21.981Z,99602.88
2023-03-30T09:33:49.978Z,99607.53
2023-03-30T09:36:16.545Z,99620.41
2023-03-30T09:38:43.030Z,99615.41
2023-03-30T09:41:09.492Z,99621.19
2023-03-30T09:43:36.189Z,99616.72
2023-03-30T09:46:02.795Z,99626.50
2023-03-30T09:48:29.401Z,99633.22
2023-03-30T09:50:57.090Z,99626.41
2023-03-30T09:53:25.158Z,99634.47
2023-03-30T09:55:52.323Z,99639.44
2023-03-30T09:58:18.920Z,99638.09
2023-03-30T10:00:45.366Z,99625.88
2023-03-30T10:03:11.907Z,99629.56
2023-03-30T10:05:38.423Z,99623.38
2023-03-30T10:08:04.953Z,99628.72
2023-03-30T10:10:31.426Z,99636.63
2023-03-30T10:12:57.881Z,99638.50
2023-03-30T10:15:24.740Z,99638.44
2023-03-30T10:17:56.638Z,99648.13
2023-03-30T10:20:23.122Z,99651.03
2023-03-30T10:22:49.636Z,99644.38
2023-03-30T10:25:16.104Z,99638.53
2023-03-30T10:27:45.767Z,99628.25
2023-03-30T10:30:12.301Z,99627.19
2023-03-30T10:32:38.861Z,99619.06
2023-03-30T10:35:06.696Z,99611.44
2023-03-30T10:37:33.221Z,99594.63
2023-03-30T10:39:59.652Z,99583.16
2023-03-30T10:42:26.502Z,99574.37
2023-03-30T10:44:53.025Z,99574.59
2023-03-30T10:47:19.554Z,99576.28
2023-03-30T10:49:46.747Z,99569.72
2023-03-30T10:52:13.252Z,99577.97
2023-03-30T10:54:39.720Z,99583.91
2023-03-30T10:57:06.525Z,99585.91
2023-03-30T10:59:33.038Z,99578.97
2023-03-30T11:01:59.456Z,99612.16
2023-03-30T11:04:26.076Z,99609.69
2023-03-30T11:06:53.482Z,99601.22
2023-03-30T11:09:20.077Z,99599.91
2023-03-30T11:11:46.596Z,99580.00
2023-03-30T11:14:13.040Z,99563.53
2023-03-30T11:16:40.013Z,99551.34
2023-03-30T11:19:06.545Z,99548.72
2023-03-30T11:21:33.787Z,99569.44
2023-03-30T11:24:00.284Z,99579.59
2023-03-30T11:26:26.720Z,99612.66
2023-03-30T11:28:54.333Z,99644.91
2023-03-30T11:31:20.799Z,99626.66
2023-03-30T11:33:47.255Z,99618.75
2023-03-30T11:36:17.846Z,99610.06
2023-03-30T11:38:44.486Z,99616.62
2023-03-30T11:41:11.069Z,99619.78
2023-03-30T11:43:37.522Z,99596.72
2023-03-30T11:46:04.371Z,99586.78
2023-03-30T11:48:31.024Z,99578.69
2023-03-30T11:50:57.481Z,99576.53
2023-03-30T11:53:24.607Z,99581.19
2023-03-30T11:55:51.268Z,99566.16
2023-03-30T11:58:17.714Z,99563.34
2023-03-30T12:00:44.156Z,99578.84
2023-03-30T12:03:10.796Z,99567.72
2023-03-30T12:05:37.308Z,99563.88
2023-03-30T12:08:03.712Z,99557.19
2023-03-30T12:10:30.133Z,99555.97
2023-03-30T12:12:56.553Z,99550.47
2023-03-30T12:15:23.335Z,99539.25
2023-03-30T12:17:49.778Z,99542.03
2023-03-30T12:20:16.513Z,99533.63
2023-03-30T12:22:42.935Z,99524.09
2023-03-30T12:25:09.415Z,99502.00
2023-03-30T12:27:36.076Z,99494.25
2023-03-30T12:30:03.730Z,99502.59
2023-03-30T12:32:30.316Z,99501.75
2023-03-30T12:34:56.826Z,99480.00
2023-03-30T12:37:23.320Z,99474.81
2023-03-30T12:39:49.962Z,99468.47
2023-03-30T12:42:26.419Z,99464.94
2023-03-30T12:44:52.934Z,99457.38
2023-03-30T12:47:19.424Z,99453.00
2023-03-30T12:49:45.945Z,99451.00
2023-03-30T12:52:14.311Z,99456.62
2023-03-30T12:54:40.978Z,99466.28
2023-03-30T12:57:07.430Z,99447.31
2023-03-30T12:59:33.856Z,99442.09
2023-03-30T13:02:00.271Z,99431.56
2023-03-30T13:04:26.778Z,99437.59
2023-03-30T13:06:53.299Z,99431.50
2023-03-30T13:09:19.740Z,99425.44
2023-03-30T13:11:46.310Z,99422.13
2023-03-30T13:14:12.779Z,99420.91
2023-03-30T13:16:39.212Z,99426.88
2023-03-30T13:19:05.667Z,99430.88
2023-03-30T13:21:32.998Z,99442.44
2023-03-30T13:23:59.928Z,99419.28
2023-03-30T13:26:35.128Z,99419.28
2023-03-30T13:29:02.014Z,99410.72
2023-03-30T13:31:28.481Z,99407.50
2023-03-30T13:33:54.996Z,99410.38
2023-03-30T13:36:21.519Z,99423.00
2023-03-30T13:38:47.952Z,99425.44
2023-03-30T13:41:14.502Z,99430.75
2023-03-30T13:43:41.106Z,99425.50
2023-03-30T13:46:16.548Z,99419.50
2023-03-30T13:48:43.762Z,99424.69
2023-03-30T13:51:10.741Z,99420.97
2023-03-30T13:53:37.177Z,99420.97
2023-03-30T13:56:03.719Z,99427.09
2023-03-30T13:58:30.613Z,99427.41
2023-03-30T14:00:57.261Z,99417.78
2023-03-30T14:03:23.753Z,99406.94
2023-03-30T14:05:50.239Z,99412.97
2023-03-30T14:08:17.614Z,99406.69
2023-03-30T14:10:44.030Z,99401.91
2023-03-30T14:13:10.442Z,99404.22
2023-03-30T14:15:37.469Z,99396.53
2023-03-30T14:18:05.503Z,99404.78
2023-03-30T14:20:31.996Z,99397.44
2023-03-30T14:22:58.769Z,99398.66
2023-03-30T14:25:25.679Z,99394.41
2023-03-30T14:27:52.111Z,99380.44
2023-03-30T14:30:19.121Z,99379.66
2023-03-30T14:32:45.805Z,99372.94
2023-03-30T14:35:12.311Z,99374.03
2023-03-30T14:37:38.727Z,99376.06
2023-03-30T14:40:06.884Z,99371.75
2023-03-30T14:42:34.336Z,99375.37
2023-03-30T14:45:00.907Z,99352.34
2023-03-30T14:47:27.487Z,99365.41
2023-03-30T14:49:53.996Z,99362.16
2023-03-30T14:52:20.640Z,99352.13
2023-03-30T14:55:01.942Z,99355.34
2023-03-30T14:57:34.872Z,99350.06
2023-03-30T15:00:01.343Z,99362.41
2023-03-30T15:02:27.801Z,99356.88
2023-03-30T15:04:54.357Z,99352.81
2023-03-30T15:07:21.158Z,99348.81
2023-03-30T15:09:47.591Z,99349.72
2023-03-30T15:12:14.022Z,99351.66
2023-03-30T15:14:40.504Z,99350.59
2023-03-30T15:17:07.044Z,99355.06
2023-03-30T15:19:33.625Z,99350.34
2023-03-30T15:22:00.203Z,99351.94
2023-03-30T15:24:26.706Z,99375.72
2023-03-30T15:26:53.140Z,99398.72
2023-03-30T15:29:19.600Z,99405.22
2023-03-30T15:31:46.192Z,99362.53
2023-03-30T15:34:12.591Z,99369.00
2023-03-30T15:36:39.051Z,99361.06
2023-03-30T15:39:05.678Z,99355.25
2023-03-30T15:41:32.117Z,99354.16
2023-03-30T15:43:58.631Z,99359.78
2023-03-30T15:46:25.173Z,99360.16
2023-03-30T15:48:51.721Z,99355.38
2023-03-30T15:51:18.128Z,99361.06
2023-03-30T15:53:44.664Z,99388.34
2023-03-30T15:56:11.088Z,99468.91
2023-03-30T15:58:37.531Z,99474.84
2023-03-30T16:01:04.528Z,99506.22
2023-03-30T16:03:31.276Z,99519.16
2023-03-30T16:05:57.747Z,99510.84
2023-03-30T16:08:24.205Z,99530.75
2023-03-30T16:10:51.055Z,99523.47
2023-03-30T16:13:17.475Z,99523.91
2023-03-30T16:15:43.932Z,99516.47
2023-03-30T16:18:10.792Z,99522.31
2023-03-30T16:20:37.246Z,99516.13
2023-03-30T16:23:04.728Z,99516.06
2023-03-30T16:25:44.202Z,99507.66
2023-03-30T16:28:11.431Z,99512.56
2023-03-30T16:30:38.722Z,99515.59
2023-03-30T16:33:05.252Z,99499.91
2023-03-30T16:35:31.938Z,99476.94
2023-03-30T16:37:58.459Z,99474.91
2023-03-30T16:40:24.885Z,99496.06
2023-03-30T16:42:51.329Z,99501.53
2023-03-30T16:45:17.852Z,99499.91
2023-03-30T16:47:44.611Z,99511.22
2023-03-30T16:50:11.486Z,99510.44
2023-03-30T16:52:37.921Z,99515.78
2023-03-30T16:55:04.589Z,99517.75
2023-03-30T16:57:31.106Z,99503.00
2023-03-30T16:59:57.646Z,99504.34
2023-03-30T17:02:24.169Z,99500.19
2023-03-30T17:04:50.906Z,99492.88
2023-03-30T17:07:17.340Z,99511.91
2023-03-30T17:09:43.792Z,99506.84
2023-03-30T17:12:10.211Z,99511.69
2023-03-30T17:14:36.851Z,99513.63
2023-03-30T17:17:03.375Z,99522.84
2023-03-30T17:19:29.901Z,99520.84
2023-03-30T17:21:56.846Z,99517.97
2023-03-30T17:24:23.278Z,99514.28
2023-03-30T17:26:49.803Z,99524.38
2023-03-30T17:29:16.249Z,99525.19
2023-03-30T17:31:45.961Z,99521.94
2023-03-30T17:34:12.616Z,99536.22
2023-03-30T17:36:39.061Z,99534.72
2023-03-30T17:39:05.799Z,99536.44
2023-03-30T17:41:33.842Z,99531.88
2023-03-30T17:44:00.366Z,99535.31
2023-03-30T17:46:26.858Z,99532.62
2023-03-30T17:48:53.317Z,99529.06
2023-03-30T17:51:19.836Z,99528.19
2023-03-30T17:53:46.302Z,99525.47
2023-03-30T17:56:12.723Z,99517.75
2023-03-30T17:58:39.175Z,99516.38
2023-03-30T18:01:06.177Z,99516.78
2023-03-30T18:03:32.933Z,99520.47
2023-03-30T18:05:59.587Z,99524.28
2023-03-30T18:08:26.765Z,99525.16
2023-03-30T18:10:53.228Z,99524.28
2023-03-30T18:13:19.656Z,99522.38
2023-03-30T18:15:48.551Z,99523.34
2023-03-30T18:18:22.546Z,99529.16
2023-03-30T18:20:49.000Z,99525.03
2023-03-30T18:23:15.674Z,99525.94
2023-03-30T18:25:42.094Z,99545.06
2023-03-30T18:28:08.517Z,99536.03
2023-03-30T18:30:35.018Z,99544.84
2023-03-30T18:33:01.511Z,99542.13
2023-03-30T18:35:28.136Z,99559.78
2023-03-30T18:37:54.759Z,99568.50
2023-03-30T18:40:21.295Z,99569.13
2023-03-30T18:42:47.849Z,99575.69
2023-03-30T18:45:15.734Z,99580.47
2023-03-30T18:47:42.552Z,99581.50
2023-03-30T18:50:09.001Z,99586.97
2023-03-30T18:52:35.551Z,99584.69
2023-03-30T18:55:02.032Z,99599.94
2023-03-30T18:57:28.527Z,99589.84
2023-03-30T18:59:54.973Z,99587.88
2023-03-30T19:02:21.817Z,99593.44
2023-03-30T19:04:48.297Z,99605.72
2023-03-30T19:07:14.750Z,99608.69
2023-03-30T19:09:43.388Z,99612.75
2023-03-30T19:12:10.040Z,99612.22
2023-03-30T19:14:36.547Z,99608.44
2023-03-30T19:17:03.116Z,99609.31
2023-03-30T19:19:29.680Z,99618.13
2023-03-30T19:21:58.314Z,99627.41
2023-03-30T19:24:24.740Z,99618.31
2023-03-30T19:26:51.285Z,99620.31
2023-03-30T19:29:17.761Z,99619.94
2023-03-30T19:31:44.287Z,99621.28
2023-03-30T19:34:10.882Z,99624.00
2023-03-30T19:36:37.386Z,99620.03
2023-03-30T19:39:03.828Z,99621.47
2023-03-30T19:41:30.276Z,99630.56
2023-03-30T19:43:56.709Z,99621.75
2023-03-30T19:46:23.187Z,99635.09
2023-03-30T19:48:49.803Z,99638.66
2023-03-30T19:51:17.002Z,99641.75
2023-03-30T19:53:43.486Z,99647.44
2023-03-30T19:56:13.159Z,99647.59
2023-03-30T19:58:39.612Z,99652.00
2023-03-30T20:01:07.089Z,99647.75
2023-03-30T20:03:35.555Z,99637.34
2023-03-30T20:06:02.148Z,99643.34
2023-03-30T20:08:28.571Z,99641.81
2023-03-30T20:10:55.432Z,99632.09
2023-03-30T20:13:26.100Z,99632.63
2023-03-30T20:15:52.595Z,99644.72
2023-03-30T20:18:20.774Z,99647.03
2023-03-30T20:20:47.206Z,99651.25
2023-03-30T20:23:13.665Z,99656.78
2023-03-30T20:25:40.854Z,99650.28
2023-03-30T20:28:07.292Z,99638.59
2023-03-30T20:30:33.708Z,99638.50
2023-03-30T20:33:07.860Z,99636.00
2023-03-30T20:35:34.980Z,99644.31
2023-03-30T20:38:04.642Z,99644.72
2023-03-30T20:40:31.097Z,99649.91
2023-03-30T20:43:06.144Z,99653.62
2023-03-30T20:45:32.750Z,99647.97
2023-03-30T20:47:59.955Z,99653.72
2023-03-30T20:50:27.384Z,99653.53
2023-03-30T20:52:54.043Z,99655.50
2023-03-30T20:55:20.559Z,99656.88
2023-03-30T20:57:47.210Z,99656.94
2023-03-30T21:00:13.871Z,99659.41
2023-03-30T21:02:40.539Z,99662.81
2023-03-30T21:05:09.257Z,99673.63
2023-03-30T21:07:38.543Z,99668.59
2023-03-30T21:10:05.083Z,99669.12
2023-03-30T21:12:31.616Z,99673.16
2023-03-30T21:14:58.031Z,99670.00
2023-03-30T21:17:24.596Z,99666.06
2023-03-30T21:19:51.030Z,99667.28
2023-03-30T21:22:19.043Z,99669.34
2023-03-30T21:24:45.536Z,99664.25
2023-03-30T21:27:14.084Z,99661.75
2023-03-30T21:29:40.571Z,99661.81
2023-03-30T21:32:07.039Z,99660.78
2023-03-30T21:34:33.486Z,99653.56
2023-03-30T21:37:00.042Z,99657.63
2023-03-30T21:39:26.573Z,99655.75
2023-03-30T21:41:53.064Z,99652.22
2023-03-30T21:44:19.859Z,99647.81
2023-03-30T21:46:46.295Z,99641.69
2023-03-30T21:49:12.819Z,99654.94
2023-03-30T21:51:39.260Z,99647.03
2023-03-30T21:54:06.107Z,99659.25
2023-03-30T21:56:32.610Z,99645.09
2023-03-30T21:58:59.074Z,99653.28
2023-03-30T22:01:25.593Z,99649.00
2023-03-30T22:03:52.182Z,99641.63
2023-03-30T22:06:18.753Z,99642.87
2023-03-30T22:08:45.590Z,99637.47
2023-03-30T22:11:12.079Z,99629.91
2023-03-30T22:13:38.511Z,99634.56
2023-03-30T22:16:05.177Z,99634.84
2023-03-30T22:18:31.746Z,99625.06
2023-03-30T22:20:58.173Z,99619.06
2023-03-30T22:23:24.584Z,99617.59
2023-03-30T22:25:51.167Z,99620.56
2023-03-30T22:28:17.631Z,99612.47
2023-03-30T22:30:44.128Z,99609.88
2023-03-30T22:33:10.564Z,99614.81
2023-03-30T22:35:37.619Z,99612.47
2023-03-30T22:38:04.093Z,99617.41
2023-03-30T22:40:30.547Z,99602.84
2023-03-30T22:42:56.974Z,99605.47
2023-03-30T22:45:25.893Z,99599.25
2023-03-30T22:47:52.472Z,99590.34
2023-03-30T22:50:18.913Z,99596.87
2023-03-30T22:52:45.583Z,99598.69
2023-03-30T22:55:12.024Z,99601.47
2023-03-30T22:57:38.445Z,99593.19
2023-03-30T23:00:10.273Z,99590.94
2023-03-30T23:02:37.450Z,99584.53
2023-03-30T23:05:03.898Z,99580.47
2023-03-30T23:07:31.507Z,99576.06
2023-03-30T23:09:58.510Z,99566.28
2023-03-30T23:12:25.210Z,99570.16
2023-03-30T23:14:51.614Z,99573.38
2023-03-30T23:17:18.443Z,99571.91
2023-03-30T23:19:45.836Z,99568.84
2023-03-30T23:22:12.377Z,99570.50
2023-03-30T23:24:38.936Z,99550.94
2023-03-30T23:27:05.502Z,99553.72
2023-03-30T23:29:31.955Z,99554.81
2023-03-30T23:31:58.685Z,99556.97
2023-03-30T23:34:25.101Z,99562.75
2023-03-30T23:36:53.233Z,99555.88
2023-03-30T23:39:19.675Z,99569.97
2023-03-30T23:41:46.138Z,99560.44
2023-03-30T23:44:12.593Z,99551.03
2023-03-30T23:46:39.503Z,99557.81
2023-03-30T23:49:06.437Z,99564.66
2023-03-30T23:51:32.950Z,99557.50
2023-03-30T23:54:06.353Z,99554.72
2023-03-30T23:56:32.871Z,99546.50
2023-03-30T23:58:59.600Z,99544.53
